Terminal Aerodrome Forecast
Issued by NWS Paducah, KY

Home | Current Version | Previous Version | Text Only | Print | Product List | Glossary On
Versions: 1 2 3 4 5 6 7 8 9 10 11 12 13 14 15 16
000
FTUS43 KPAH 012300
TAFPAH
TAF
KPAH 012333Z 0200/0224 VRB02KT P6SM SCT060 BKN100
     FM020900 00000KT 5SM BR SCT100
     FM021400 03005KT P6SM FEW060=

USA.gov is the U.S. government's official web portal to all federal, state and local government web resources and services.